Terminal Aerodrome Forecast
Issued by NWS Sioux Falls, SD

Home | Current Version | Previous Version | Text Only | Print | Product List | Glossary On
Versions: 1 2 3 4 5 6 7 8 9 10 11 12 13 14 15 16
000
FTUS43 KFSD 311400 AAA
TAFHON
TAF AMD
KHON 311400Z 3114/0112 04012KT P6SM OVC006
     FM311900 04014G20KT P6SM OVC012
     FM010100 03015G22KT 4SM -SN OVC010
     FM010300 01015G22KT 2SM -SN OVC010
     FM010800 36015G22KT 5SM -SN OVC015=

USA.gov is the U.S. government's official web portal to all federal, state and local government web resources and services.